sensor_id;sensor_type;location;lat;lon;timestamp;P1;durP1;ratioP1;P2;durP2;ratioP2
59846;SDS011;45728;48.788;2.302;2023-04-07T00:02:04;8.82;;;2.60;;
59846;SDS011;45728;48.788;2.302;2023-04-07T00:04:30;11.52;;;3.03;;
59846;SDS011;45728;48.788;2.302;2023-04-07T00:06:57;11.88;;;3.05;;
59846;SDS011;45728;48.788;2.302;2023-04-07T00:09:23;9.85;;;2.95;;
59846;SDS011;45728;48.788;2.302;2023-04-07T00:11:49;12.75;;;3.45;;
59846;SDS011;45728;48.788;2.302;2023-04-07T00:14:15;9.73;;;3.03;;
59846;SDS011;45728;48.788;2.302;2023-04-07T00:16:41;10.85;;;2.70;;
59846;SDS011;45728;48.788;2.302;2023-04-07T00:19:07;12.23;;;2.75;;
59846;SDS011;45728;48.788;2.302;2023-04-07T00:21:33;9.68;;;2.85;;
59846;SDS011;45728;48.788;2.302;2023-04-07T00:23:59;13.80;;;2.95;;
59846;SDS011;45728;48.788;2.302;2023-04-07T00:26:25;9.15;;;2.92;;
59846;SDS011;45728;48.788;2.302;2023-04-07T00:28:56;12.45;;;3.25;;
59846;SDS011;45728;48.788;2.302;2023-04-07T00:31:23;10.32;;;3.00;;
59846;SDS011;45728;48.788;2.302;2023-04-07T00:33:49;14.23;;;3.60;;
59846;SDS011;45728;48.788;2.302;2023-04-07T00:36:15;12.10;;;3.15;;
59846;SDS011;45728;48.788;2.302;2023-04-07T00:38:41;11.80;;;3.25;;
59846;SDS011;45728;48.788;2.302;2023-04-07T00:41:07;11.52;;;2.78;;
59846;SDS011;45728;48.788;2.302;2023-04-07T00:43:33;19.40;;;3.63;;
59846;SDS011;45728;48.788;2.302;2023-04-07T00:46:00;13.55;;;2.72;;
59846;SDS011;45728;48.788;2.302;2023-04-07T00:48:26;10.88;;;2.67;;
59846;SDS011;45728;48.788;2.302;2023-04-07T00:50:52;9.63;;;2.65;;
59846;SDS011;45728;48.788;2.302;2023-04-07T00:53:18;12.35;;;3.13;;
59846;SDS011;45728;48.788;2.302;2023-04-07T00:55:44;12.57;;;3.05;;
59846;SDS011;45728;48.788;2.302;2023-04-07T00:58:10;11.73;;;2.72;;
59846;SDS011;45728;48.788;2.302;2023-04-07T01:00:39;15.02;;;3.30;;
59846;SDS011;45728;48.788;2.302;2023-04-07T01:03:12;10.80;;;2.60;;
59846;SDS011;45728;48.788;2.302;2023-04-07T01:06:02;10.95;;;3.35;;
59846;SDS011;45728;48.788;2.302;2023-04-07T01:08:41;10.95;;;2.92;;
59846;SDS011;45728;48.788;2.302;2023-04-07T01:13:45;13.02;;;3.50;;
59846;SDS011;45728;48.788;2.302;2023-04-07T01:16:16;9.70;;;2.70;;
59846;SDS011;45728;48.788;2.302;2023-04-07T01:18:50;9.75;;;3.33;;
59846;SDS011;45728;48.788;2.302;2023-04-07T01:21:19;11.15;;;3.35;;
59846;SDS011;45728;48.788;2.302;2023-04-07T01:26:36;12.43;;;3.20;;
59846;SDS011;45728;48.788;2.302;2023-04-07T01:31:59;17.13;;;3.38;;
59846;SDS011;45728;48.788;2.302;2023-04-07T01:34:27;18.80;;;3.83;;
59846;SDS011;45728;48.788;2.302;2023-04-07T01:36:56;11.70;;;3.53;;
59846;SDS011;45728;48.788;2.302;2023-04-07T01:39:25;13.50;;;3.47;;
59846;SDS011;45728;48.788;2.302;2023-04-07T01:41:52;9.50;;;3.05;;
59846;SDS011;45728;48.788;2.302;2023-04-07T01:44:19;11.93;;;3.63;;
59846;SDS011;45728;48.788;2.302;2023-04-07T01:46:46;10.82;;;3.05;;
59846;SDS011;45728;48.788;2.302;2023-04-07T01:49:15;12.40;;;3.40;;
59846;SDS011;45728;48.788;2.302;2023-04-07T01:51:42;14.15;;;3.15;;
59846;SDS011;45728;48.788;2.302;2023-04-07T01:54:14;12.45;;;3.20;;
59846;SDS011;45728;48.788;2.302;2023-04-07T01:56:42;12.52;;;3.72;;
59846;SDS011;45728;48.788;2.302;2023-04-07T01:59:09;11.65;;;3.20;;
59846;SDS011;45728;48.788;2.302;2023-04-07T02:01:35;12.60;;;3.40;;
59846;SDS011;45728;48.788;2.302;2023-04-07T02:07:00;9.73;;;3.45;;
59846;SDS011;45728;48.788;2.302;2023-04-07T02:09:31;10.57;;;3.25;;
59846;SDS011;45728;48.788;2.302;2023-04-07T02:11:59;10.13;;;3.33;;
59846;SDS011;45728;48.788;2.302;2023-04-07T02:14:26;11.55;;;3.05;;
59846;SDS011;45728;48.788;2.302;2023-04-07T02:16:53;13.50;;;3.83;;
59846;SDS011;45728;48.788;2.302;2023-04-07T02:19:21;11.80;;;3.25;;
59846;SDS011;45728;48.788;2.302;2023-04-07T02:21:47;13.70;;;3.60;;
59846;SDS011;45728;48.788;2.302;2023-04-07T02:24:18;14.45;;;4.05;;
59846;SDS011;45728;48.788;2.302;2023-04-07T02:26:45;13.32;;;3.90;;
59846;SDS011;45728;48.788;2.302;2023-04-07T02:29:12;12.63;;;3.80;;
59846;SDS011;45728;48.788;2.302;2023-04-07T02:31:38;14.95;;;3.55;;
59846;SDS011;45728;48.788;2.302;2023-04-07T02:34:04;12.30;;;3.70;;
59846;SDS011;45728;48.788;2.302;2023-04-07T02:36:30;13.82;;;3.50;;
59846;SDS011;45728;48.788;2.302;2023-04-07T02:38:57;12.27;;;3.95;;
59846;SDS011;45728;48.788;2.302;2023-04-07T02:41:23;18.30;;;3.78;;
59846;SDS011;45728;48.788;2.302;2023-04-07T02:43:49;10.70;;;3.72;;
59846;SDS011;45728;48.788;2.302;2023-04-07T02:46:15;13.52;;;3.80;;
59846;SDS011;45728;48.788;2.302;2023-04-07T02:48:41;11.98;;;3.97;;
59846;SDS011;45728;48.788;2.302;2023-04-07T02:51:07;12.30;;;3.55;;
59846;SDS011;45728;48.788;2.302;2023-04-07T02:53:33;14.95;;;4.30;;
59846;SDS011;45728;48.788;2.302;2023-04-07T02:55:59;12.13;;;3.25;;
59846;SDS011;45728;48.788;2.302;2023-04-07T02:58:25;15.95;;;4.53;;
59846;SDS011;45728;48.788;2.302;2023-04-07T03:00:51;12.90;;;3.67;;
59846;SDS011;45728;48.788;2.302;2023-04-07T03:03:18;14.88;;;4.25;;
59846;SDS011;45728;48.788;2.302;2023-04-07T03:05:44;18.02;;;4.38;;
59846;SDS011;45728;48.788;2.302;2023-04-07T03:08:10;11.73;;;3.55;;
59846;SDS011;45728;48.788;2.302;2023-04-07T03:10:36;16.52;;;4.25;;
59846;SDS011;45728;48.788;2.302;2023-04-07T03:13:02;9.73;;;3.45;;
59846;SDS011;45728;48.788;2.302;2023-04-07T03:15:28;12.20;;;3.80;;
59846;SDS011;45728;48.788;2.302;2023-04-07T03:17:54;11.98;;;4.38;;
59846;SDS011;45728;48.788;2.302;2023-04-07T03:20:21;13.63;;;4.05;;
59846;SDS011;45728;48.788;2.302;2023-04-07T03:22:47;17.23;;;4.53;;
59846;SDS011;45728;48.788;2.302;2023-04-07T03:25:13;15.52;;;4.22;;
59846;SDS011;45728;48.788;2.302;2023-04-07T03:27:39;11.30;;;4.00;;
59846;SDS011;45728;48.788;2.302;2023-04-07T03:30:05;12.52;;;4.40;;
59846;SDS011;45728;48.788;2.302;2023-04-07T03:32:32;14.38;;;4.25;;
59846;SDS011;45728;48.788;2.302;2023-04-07T03:34:58;11.20;;;3.50;;
59846;SDS011;45728;48.788;2.302;2023-04-07T03:37:24;10.70;;;3.85;;
59846;SDS011;45728;48.788;2.302;2023-04-07T03:39:50;17.35;;;4.65;;
59846;SDS011;45728;48.788;2.302;2023-04-07T03:42:16;13.90;;;4.35;;
59846;SDS011;45728;48.788;2.302;2023-04-07T03:44:42;14.85;;;3.85;;
59846;SDS011;45728;48.788;2.302;2023-04-07T03:47:08;14.73;;;4.57;;
59846;SDS011;45728;48.788;2.302;2023-04-07T03:49:34;17.15;;;4.45;;
59846;SDS011;45728;48.788;2.302;2023-04-07T03:52:03;13.43;;;4.00;;
59846;SDS011;45728;48.788;2.302;2023-04-07T03:54:29;12.65;;;4.15;;
59846;SDS011;45728;48.788;2.302;2023-04-07T03:56:55;12.93;;;4.10;;
59846;SDS011;45728;48.788;2.302;2023-04-07T03:59:22;16.10;;;4.45;;
59846;SDS011;45728;48.788;2.302;2023-04-07T04:01:48;17.75;;;4.68;;
59846;SDS011;45728;48.788;2.302;2023-04-07T04:04:14;19.00;;;5.00;;
59846;SDS011;45728;48.788;2.302;2023-04-07T04:06:40;17.58;;;4.55;;
59846;SDS011;45728;48.788;2.302;2023-04-07T04:09:06;20.90;;;5.18;;
59846;SDS011;45728;48.788;2.302;2023-04-07T04:11:32;15.77;;;4.25;;
59846;SDS011;45728;48.788;2.302;2023-04-07T04:13:58;16.13;;;4.40;;
59846;SDS011;45728;48.788;2.302;2023-04-07T04:16:24;11.30;;;4.25;;
59846;SDS011;45728;48.788;2.302;2023-04-07T04:18:50;11.38;;;4.22;;
59846;SDS011;45728;48.788;2.302;2023-04-07T04:21:16;12.25;;;4.40;;
59846;SDS011;45728;48.788;2.302;2023-04-07T04:23:42;13.38;;;4.55;;
59846;SDS011;45728;48.788;2.302;2023-04-07T04:26:08;15.00;;;4.68;;
59846;SDS011;45728;48.788;2.302;2023-04-07T04:28:34;12.25;;;4.35;;
59846;SDS011;45728;48.788;2.302;2023-04-07T04:31:01;14.43;;;4.32;;
59846;SDS011;45728;48.788;2.302;2023-04-07T04:33:27;15.55;;;4.70;;
59846;SDS011;45728;48.788;2.302;2023-04-07T04:35:53;17.13;;;3.90;;
59846;SDS011;45728;48.788;2.302;2023-04-07T04:38:19;11.93;;;4.05;;
59846;SDS011;45728;48.788;2.302;2023-04-07T04:40:45;19.95;;;5.18;;
59846;SDS011;45728;48.788;2.302;2023-04-07T04:43:11;14.23;;;4.00;;
59846;SDS011;45728;48.788;2.302;2023-04-07T04:45:37;10.93;;;3.85;;
59846;SDS011;45728;48.788;2.302;2023-04-07T04:48:03;11.32;;;4.20;;
59846;SDS011;45728;48.788;2.302;2023-04-07T04:50:30;12.82;;;4.03;;
59846;SDS011;45728;48.788;2.302;2023-04-07T04:52:56;14.00;;;3.80;;
59846;SDS011;45728;48.788;2.302;2023-04-07T04:55:22;13.90;;;4.05;;
59846;SDS011;45728;48.788;2.302;2023-04-07T04:57:48;15.88;;;3.97;;
59846;SDS011;45728;48.788;2.302;2023-04-07T05:00:14;15.20;;;4.60;;
59846;SDS011;45728;48.788;2.302;2023-04-07T05:02:41;13.18;;;4.25;;
59846;SDS011;45728;48.788;2.302;2023-04-07T05:05:07;14.30;;;4.47;;
59846;SDS011;45728;48.788;2.302;2023-04-07T05:07:33;17.13;;;4.95;;
59846;SDS011;45728;48.788;2.302;2023-04-07T05:10:00;13.75;;;4.38;;
59846;SDS011;45728;48.788;2.302;2023-04-07T05:12:26;13.40;;;4.70;;
59846;SDS011;45728;48.788;2.302;2023-04-07T05:14:52;13.00;;;4.20;;
59846;SDS011;45728;48.788;2.302;2023-04-07T05:17:18;12.52;;;4.53;;
59846;SDS011;45728;48.788;2.302;2023-04-07T05:19:44;11.30;;;4.70;;
59846;SDS011;45728;48.788;2.302;2023-04-07T05:22:10;16.38;;;4.57;;
59846;SDS011;45728;48.788;2.302;2023-04-07T05:24:36;10.60;;;4.68;;
59846;SDS011;45728;48.788;2.302;2023-04-07T05:27:02;14.63;;;5.13;;
59846;SDS011;45728;48.788;2.302;2023-04-07T05:29:28;13.48;;;4.53;;
59846;SDS011;45728;48.788;2.302;2023-04-07T05:31:55;18.60;;;5.45;;
59846;SDS011;45728;48.788;2.302;2023-04-07T05:34:21;11.88;;;4.88;;
59846;SDS011;45728;48.788;2.302;2023-04-07T05:36:47;17.15;;;6.00;;
59846;SDS011;45728;48.788;2.302;2023-04-07T05:39:13;15.82;;;5.32;;
59846;SDS011;45728;48.788;2.302;2023-04-07T05:41:39;11.82;;;4.40;;
59846;SDS011;45728;48.788;2.302;2023-04-07T05:44:05;15.00;;;5.80;;
59846;SDS011;45728;48.788;2.302;2023-04-07T05:46:31;13.38;;;5.40;;
59846;SDS011;45728;48.788;2.302;2023-04-07T05:48:57;14.02;;;5.97;;
59846;SDS011;45728;48.788;2.302;2023-04-07T05:51:23;12.95;;;5.40;;
59846;SDS011;45728;48.788;2.302;2023-04-07T05:53:50;15.23;;;5.28;;
59846;SDS011;45728;48.788;2.302;2023-04-07T05:56:16;15.52;;;5.78;;
59846;SDS011;45728;48.788;2.302;2023-04-07T05:58:42;15.55;;;6.30;;
59846;SDS011;45728;48.788;2.302;2023-04-07T06:01:08;18.58;;;6.13;;
59846;SDS011;45728;48.788;2.302;2023-04-07T06:03:35;13.77;;;6.45;;
59846;SDS011;45728;48.788;2.302;2023-04-07T06:06:01;17.90;;;6.43;;
59846;SDS011;45728;48.788;2.302;2023-04-07T06:08:27;14.93;;;6.72;;
59846;SDS011;45728;48.788;2.302;2023-04-07T06:10:53;17.40;;;7.45;;
59846;SDS011;45728;48.788;2.302;2023-04-07T06:13:19;14.27;;;7.10;;
59846;SDS011;45728;48.788;2.302;2023-04-07T06:15:45;18.25;;;8.77;;
59846;SDS011;45728;48.788;2.302;2023-04-07T06:18:11;17.92;;;8.38;;
59846;SDS011;45728;48.788;2.302;2023-04-07T06:20:37;17.67;;;8.73;;
59846;SDS011;45728;48.788;2.302;2023-04-07T06:23:03;20.25;;;9.15;;
59846;SDS011;45728;48.788;2.302;2023-04-07T06:25:29;17.65;;;8.65;;
59846;SDS011;45728;48.788;2.302;2023-04-07T06:27:55;16.95;;;8.90;;
59846;SDS011;45728;48.788;2.302;2023-04-07T06:30:21;16.92;;;9.13;;
59846;SDS011;45728;48.788;2.302;2023-04-07T06:32:47;18.83;;;9.40;;
59846;SDS011;45728;48.788;2.302;2023-04-07T06:35:13;19.88;;;9.50;;
59846;SDS011;45728;48.788;2.302;2023-04-07T06:37:39;16.25;;;8.85;;
59846;SDS011;45728;48.788;2.302;2023-04-07T06:40:06;16.65;;;9.80;;
59846;SDS011;45728;48.788;2.302;2023-04-07T06:42:32;16.50;;;9.25;;
59846;SDS011;45728;48.788;2.302;2023-04-07T06:44:58;17.23;;;9.15;;
59846;SDS011;45728;48.788;2.302;2023-04-07T06:47:24;20.15;;;9.93;;
59846;SDS011;45728;48.788;2.302;2023-04-07T06:49:51;21.15;;;10.20;;
59846;SDS011;45728;48.788;2.302;2023-04-07T06:52:17;16.35;;;9.52;;
59846;SDS011;45728;48.788;2.302;2023-04-07T06:54:43;17.83;;;10.52;;
59846;SDS011;45728;48.788;2.302;2023-04-07T06:57:09;17.92;;;10.00;;
59846;SDS011;45728;48.788;2.302;2023-04-07T06:59:37;21.05;;;11.32;;
59846;SDS011;45728;48.788;2.302;2023-04-07T07:02:03;19.48;;;10.77;;
59846;SDS011;45728;48.788;2.302;2023-04-07T07:04:29;18.75;;;10.32;;
59846;SDS011;45728;48.788;2.302;2023-04-07T07:06:56;20.85;;;10.90;;
59846;SDS011;45728;48.788;2.302;2023-04-07T07:09:22;20.02;;;11.23;;
59846;SDS011;45728;48.788;2.302;2023-04-07T07:11:48;20.25;;;11.07;;
59846;SDS011;45728;48.788;2.302;2023-04-07T07:14:14;17.85;;;10.15;;
59846;SDS011;45728;48.788;2.302;2023-04-07T07:16:40;18.80;;;10.85;;
59846;SDS011;45728;48.788;2.302;2023-04-07T07:19:06;17.73;;;10.32;;
59846;SDS011;45728;48.788;2.302;2023-04-07T07:21:32;17.67;;;11.38;;
59846;SDS011;45728;48.788;2.302;2023-04-07T07:23:58;25.58;;;11.52;;
59846;SDS011;45728;48.788;2.302;2023-04-07T07:26:24;22.02;;;10.55;;
59846;SDS011;45728;48.788;2.302;2023-04-07T07:28:51;18.15;;;10.50;;
59846;SDS011;45728;48.788;2.302;2023-04-07T07:31:17;23.55;;;10.40;;
59846;SDS011;45728;48.788;2.302;2023-04-07T07:33:43;19.40;;;11.30;;
59846;SDS011;45728;48.788;2.302;2023-04-07T07:36:10;18.10;;;10.88;;
59846;SDS011;45728;48.788;2.302;2023-04-07T07:38:37;18.38;;;10.50;;
59846;SDS011;45728;48.788;2.302;2023-04-07T07:41:05;17.85;;;10.75;;
59846;SDS011;45728;48.788;2.302;2023-04-07T07:43:50;18.17;;;10.05;;
59846;SDS011;45728;48.788;2.302;2023-04-07T07:46:16;16.92;;;10.80;;
59846;SDS011;45728;48.788;2.302;2023-04-07T07:48:42;17.17;;;9.65;;
59846;SDS011;45728;48.788;2.302;2023-04-07T07:51:08;18.45;;;10.70;;
59846;SDS011;45728;48.788;2.302;2023-04-07T07:53:34;15.88;;;10.20;;
59846;SDS011;45728;48.788;2.302;2023-04-07T07:56:00;20.33;;;10.40;;
59846;SDS011;45728;48.788;2.302;2023-04-07T07:58:26;18.77;;;10.63;;
59846;SDS011;45728;48.788;2.302;2023-04-07T08:00:52;24.00;;;11.15;;
59846;SDS011;45728;48.788;2.302;2023-04-07T08:03:18;20.20;;;11.13;;
59846;SDS011;45728;48.788;2.302;2023-04-07T08:05:47;17.25;;;10.68;;
59846;SDS011;45728;48.788;2.302;2023-04-07T08:08:13;18.63;;;10.52;;
59846;SDS011;45728;48.788;2.302;2023-04-07T08:10:40;23.35;;;11.02;;
59846;SDS011;45728;48.788;2.302;2023-04-07T08:13:06;17.02;;;11.20;;
59846;SDS011;45728;48.788;2.302;2023-04-07T08:15:32;15.07;;;10.27;;
59846;SDS011;45728;48.788;2.302;2023-04-07T08:17:58;17.08;;;10.52;;
59846;SDS011;45728;48.788;2.302;2023-04-07T08:20:25;21.40;;;11.65;;
59846;SDS011;45728;48.788;2.302;2023-04-07T08:22:52;19.50;;;10.73;;
59846;SDS011;45728;48.788;2.302;2023-04-07T08:25:18;18.52;;;10.57;;
59846;SDS011;45728;48.788;2.302;2023-04-07T08:27:45;16.58;;;10.85;;
59846;SDS011;45728;48.788;2.302;2023-04-07T08:30:11;17.85;;;10.07;;
59846;SDS011;45728;48.788;2.302;2023-04-07T08:32:41;15.77;;;9.57;;
59846;SDS011;45728;48.788;2.302;2023-04-07T08:35:09;19.10;;;10.43;;
59846;SDS011;45728;48.788;2.302;2023-04-07T08:37:36;19.98;;;10.55;;
59846;SDS011;45728;48.788;2.302;2023-04-07T08:40:03;19.30;;;10.40;;
59846;SDS011;45728;48.788;2.302;2023-04-07T08:42:31;17.10;;;10.00;;
59846;SDS011;45728;48.788;2.302;2023-04-07T08:45:05;19.83;;;10.70;;
59846;SDS011;45728;48.788;2.302;2023-04-07T08:47:33;15.85;;;9.73;;
59846;SDS011;45728;48.788;2.302;2023-04-07T08:50:05;17.63;;;9.23;;
59846;SDS011;45728;48.788;2.302;2023-04-07T08:52:34;15.27;;;9.60;;
59846;SDS011;45728;48.788;2.302;2023-04-07T08:55:09;15.23;;;9.20;;
59846;SDS011;45728;48.788;2.302;2023-04-07T08:57:36;18.10;;;9.57;;
59846;SDS011;45728;48.788;2.302;2023-04-07T09:00:02;16.90;;;10.40;;
59846;SDS011;45728;48.788;2.302;2023-04-07T09:02:31;18.35;;;9.68;;
59846;SDS011;45728;48.788;2.302;2023-04-07T09:05:05;17.30;;;9.40;;
59846;SDS011;45728;48.788;2.302;2023-04-07T09:07:36;16.50;;;10.80;;
59846;SDS011;45728;48.788;2.302;2023-04-07T09:10:05;17.98;;;9.73;;
59846;SDS011;45728;48.788;2.302;2023-04-07T09:12:32;16.38;;;9.55;;
59846;SDS011;45728;48.788;2.302;2023-04-07T09:14:58;16.33;;;9.02;;
59846;SDS011;45728;48.788;2.302;2023-04-07T09:17:26;16.70;;;8.98;;
59846;SDS011;45728;48.788;2.302;2023-04-07T09:19:56;16.10;;;9.80;;
59846;SDS011;45728;48.788;2.302;2023-04-07T09:22:36;14.98;;;9.25;;
59846;SDS011;45728;48.788;2.302;2023-04-07T09:25:10;13.07;;;8.63;;
59846;SDS011;45728;48.788;2.302;2023-04-07T09:27:37;17.85;;;9.55;;
59846;SDS011;45728;48.788;2.302;2023-04-07T09:30:10;14.50;;;8.77;;
59846;SDS011;45728;48.788;2.302;2023-04-07T09:32:39;16.10;;;9.18;;
59846;SDS011;45728;48.788;2.302;2023-04-07T09:35:08;13.13;;;7.57;;
59846;SDS011;45728;48.788;2.302;2023-04-07T09:37:34;14.50;;;8.90;;
59846;SDS011;45728;48.788;2.302;2023-04-07T09:40:00;10.00;;;6.15;;
59846;SDS011;45728;48.788;2.302;2023-04-07T09:42:27;11.95;;;7.00;;
59846;SDS011;45728;48.788;2.302;2023-04-07T09:47:26;12.05;;;6.45;;
59846;SDS011;45728;48.788;2.302;2023-04-07T09:49:56;11.55;;;6.03;;
59846;SDS011;45728;48.788;2.302;2023-04-07T09:55:21;14.00;;;6.22;;
59846;SDS011;45728;48.788;2.302;2023-04-07T09:57:49;11.75;;;6.50;;
59846;SDS011;45728;48.788;2.302;2023-04-07T10:00:15;8.98;;;5.07;;
59846;SDS011;45728;48.788;2.302;2023-04-07T10:02:42;11.70;;;5.80;;
59846;SDS011;45728;48.788;2.302;2023-04-07T10:05:09;8.57;;;4.75;;
59846;SDS011;45728;48.788;2.302;2023-04-07T10:07:35;11.52;;;5.00;;
59846;SDS011;45728;48.788;2.302;2023-04-07T10:10:02;11.63;;;4.97;;
59846;SDS011;45728;48.788;2.302;2023-04-07T10:12:29;8.48;;;4.40;;
59846;SDS011;45728;48.788;2.302;2023-04-07T10:14:58;9.48;;;4.82;;
59846;SDS011;45728;48.788;2.302;2023-04-07T10:17:26;9.52;;;4.22;;
59846;SDS011;45728;48.788;2.302;2023-04-07T10:19:53;7.70;;;3.45;;
59846;SDS011;45728;48.788;2.302;2023-04-07T10:22:24;7.68;;;3.20;;
59846;SDS011;45728;48.788;2.302;2023-04-07T10:25:03;8.35;;;4.32;;
59846;SDS011;45728;48.788;2.302;2023-04-07T10:27:38;8.57;;;3.67;;
59846;SDS011;45728;48.788;2.302;2023-04-07T10:30:16;6.95;;;3.80;;
59846;SDS011;45728;48.788;2.302;2023-04-07T10:32:49;6.03;;;3.35;;
59846;SDS011;45728;48.788;2.302;2023-04-07T10:35:16;6.15;;;3.13;;
59846;SDS011;45728;48.788;2.302;2023-04-07T10:38:25;5.68;;;3.42;;
59846;SDS011;45728;48.788;2.302;2023-04-07T10:40:32;7.13;;;3.72;;
59846;SDS011;45728;48.788;2.302;2023-04-07T10:42:58;5.60;;;3.05;;
59846;SDS011;45728;48.788;2.302;2023-04-07T10:48:10;5.97;;;3.13;;
59846;SDS011;45728;48.788;2.302;2023-04-07T10:50:38;7.93;;;3.42;;
59846;SDS011;45728;48.788;2.302;2023-04-07T10:53:11;7.63;;;3.30;;
59846;SDS011;45728;48.788;2.302;2023-04-07T10:55:39;7.10;;;3.60;;
59846;SDS011;45728;48.788;2.302;2023-04-07T10:58:22;6.67;;;2.83;;
59846;SDS011;45728;48.788;2.302;2023-04-07T11:03:25;5.82;;;2.80;;
59846;SDS011;45728;48.788;2.302;2023-04-07T11:06:13;7.93;;;2.70;;
59846;SDS011;45728;48.788;2.302;2023-04-07T11:08:43;4.47;;;2.10;;
59846;SDS011;45728;48.788;2.302;2023-04-07T11:11:11;5.93;;;2.63;;
59846;SDS011;45728;48.788;2.302;2023-04-07T11:13:40;7.18;;;3.05;;
59846;SDS011;45728;48.788;2.302;2023-04-07T11:16:16;6.85;;;2.88;;
59846;SDS011;45728;48.788;2.302;2023-04-07T11:18:44;6.95;;;3.08;;
59846;SDS011;45728;48.788;2.302;2023-04-07T11:21:16;11.15;;;3.55;;
59846;SDS011;45728;48.788;2.302;2023-04-07T11:23:43;5.45;;;3.13;;
59846;SDS011;45728;48.788;2.302;2023-04-07T11:26:11;5.43;;;3.30;;
59846;SDS011;45728;48.788;2.302;2023-04-07T11:28:51;6.22;;;3.42;;
59846;SDS011;45728;48.788;2.302;2023-04-07T11:33:56;8.68;;;3.10;;
59846;SDS011;45728;48.788;2.302;2023-04-07T11:36:27;5.22;;;2.78;;
59846;SDS011;45728;48.788;2.302;2023-04-07T11:38:57;7.60;;;3.50;;
59846;SDS011;45728;48.788;2.302;2023-04-07T11:41:25;5.13;;;3.20;;
59846;SDS011;45728;48.788;2.302;2023-04-07T11:46:31;10.40;;;2.40;;
59846;SDS011;45728;48.788;2.302;2023-04-07T11:49:11;7.85;;;2.72;;
59846;SDS011;45728;48.788;2.302;2023-04-07T11:51:38;6.72;;;3.10;;
59846;SDS011;45728;48.788;2.302;2023-04-07T11:54:05;6.90;;;3.13;;
59846;SDS011;45728;48.788;2.302;2023-04-07T11:56:42;5.10;;;2.90;;
59846;SDS011;45728;48.788;2.302;2023-04-07T11:59:24;6.00;;;2.67;;
59846;SDS011;45728;48.788;2.302;2023-04-07T12:01:50;5.60;;;2.50;;
59846;SDS011;45728;48.788;2.302;2023-04-07T12:04:17;5.93;;;2.15;;
59846;SDS011;45728;48.788;2.302;2023-04-07T12:06:45;2.90;;;1.80;;
59846;SDS011;45728;48.788;2.302;2023-04-07T12:09:25;3.55;;;2.42;;
59846;SDS011;45728;48.788;2.302;2023-04-07T12:11:55;4.43;;;1.90;;
59846;SDS011;45728;48.788;2.302;2023-04-07T12:14:23;5.57;;;2.40;;
59846;SDS011;45728;48.788;2.302;2023-04-07T12:16:50;2.45;;;1.27;;
59846;SDS011;45728;48.788;2.302;2023-04-07T12:19:17;3.40;;;1.48;;
59846;SDS011;45728;48.788;2.302;2023-04-07T12:21:43;2.53;;;1.15;;
59846;SDS011;45728;48.788;2.302;2023-04-07T12:24:09;5.65;;;1.70;;
59846;SDS011;45728;48.788;2.302;2023-04-07T12:26:35;3.78;;;1.70;;
59846;SDS011;45728;48.788;2.302;2023-04-07T12:29:01;4.53;;;1.90;;
59846;SDS011;45728;48.788;2.302;2023-04-07T12:31:32;5.30;;;2.22;;
59846;SDS011;45728;48.788;2.302;2023-04-07T12:36:25;4.95;;;1.90;;
59846;SDS011;45728;48.788;2.302;2023-04-07T12:38:52;3.83;;;2.03;;
59846;SDS011;45728;48.788;2.302;2023-04-07T12:41:19;3.88;;;1.80;;
59846;SDS011;45728;48.788;2.302;2023-04-07T12:43:45;7.47;;;2.10;;
59846;SDS011;45728;48.788;2.302;2023-04-07T12:46:11;3.80;;;1.80;;
59846;SDS011;45728;48.788;2.302;2023-04-07T12:48:37;4.15;;;2.00;;
59846;SDS011;45728;48.788;2.302;2023-04-07T12:51:03;2.90;;;1.80;;
59846;SDS011;45728;48.788;2.302;2023-04-07T12:53:30;6.00;;;2.30;;
59846;SDS011;45728;48.788;2.302;2023-04-07T12:55:56;3.97;;;1.98;;
59846;SDS011;45728;48.788;2.302;2023-04-07T12:58:23;5.57;;;1.88;;
59846;SDS011;45728;48.788;2.302;2023-04-07T13:00:51;4.43;;;2.15;;
59846;SDS011;45728;48.788;2.302;2023-04-07T13:03:18;4.47;;;2.05;;
59846;SDS011;45728;48.788;2.302;2023-04-07T13:05:44;8.43;;;2.58;;
59846;SDS011;45728;48.788;2.302;2023-04-07T13:08:10;6.13;;;2.10;;
59846;SDS011;45728;48.788;2.302;2023-04-07T13:10:36;6.28;;;2.35;;
59846;SDS011;45728;48.788;2.302;2023-04-07T13:13:02;8.38;;;3.78;;
59846;SDS011;45728;48.788;2.302;2023-04-07T13:15:28;6.28;;;2.22;;
59846;SDS011;45728;48.788;2.302;2023-04-07T13:17:54;4.82;;;2.25;;
59846;SDS011;45728;48.788;2.302;2023-04-07T13:20:20;4.80;;;1.95;;
59846;SDS011;45728;48.788;2.302;2023-04-07T13:22:47;4.15;;;1.63;;
59846;SDS011;45728;48.788;2.302;2023-04-07T13:25:13;5.03;;;2.13;;
59846;SDS011;45728;48.788;2.302;2023-04-07T13:27:39;5.25;;;1.83;;
59846;SDS011;45728;48.788;2.302;2023-04-07T13:30:05;3.22;;;1.50;;
59846;SDS011;45728;48.788;2.302;2023-04-07T13:32:32;5.22;;;1.83;;
59846;SDS011;45728;48.788;2.302;2023-04-07T13:34:58;5.78;;;2.03;;
59846;SDS011;45728;48.788;2.302;2023-04-07T13:37:24;5.90;;;2.17;;
59846;SDS011;45728;48.788;2.302;2023-04-07T13:39:51;6.75;;;1.92;;
59846;SDS011;45728;48.788;2.302;2023-04-07T13:42:17;9.15;;;2.58;;
59846;SDS011;45728;48.788;2.302;2023-04-07T13:44:45;5.68;;;2.53;;
59846;SDS011;45728;48.788;2.302;2023-04-07T13:47:12;3.85;;;2.17;;
59846;SDS011;45728;48.788;2.302;2023-04-07T13:49:47;5.07;;;2.20;;
59846;SDS011;45728;48.788;2.302;2023-04-07T13:54:40;3.38;;;1.70;;
59846;SDS011;45728;48.788;2.302;2023-04-07T13:57:06;3.97;;;1.92;;
59846;SDS011;45728;48.788;2.302;2023-04-07T13:59:33;5.50;;;2.03;;
59846;SDS011;45728;48.788;2.302;2023-04-07T14:01:59;7.00;;;2.03;;
59846;SDS011;45728;48.788;2.302;2023-04-07T14:04:25;5.18;;;3.17;;
59846;SDS011;45728;48.788;2.302;2023-04-07T14:06:52;4.35;;;2.20;;
59846;SDS011;45728;48.788;2.302;2023-04-07T14:09:18;5.32;;;1.80;;
59846;SDS011;45728;48.788;2.302;2023-04-07T14:11:44;5.95;;;2.05;;
59846;SDS011;45728;48.788;2.302;2023-04-07T14:14:11;4.07;;;1.38;;
59846;SDS011;45728;48.788;2.302;2023-04-07T14:16:37;5.10;;;1.83;;
59846;SDS011;45728;48.788;2.302;2023-04-07T14:19:03;5.47;;;2.00;;
59846;SDS011;45728;48.788;2.302;2023-04-07T14:21:29;3.67;;;1.77;;
59846;SDS011;45728;48.788;2.302;2023-04-07T14:23:55;6.07;;;2.45;;
59846;SDS011;45728;48.788;2.302;2023-04-07T14:26:21;3.70;;;2.03;;
59846;SDS011;45728;48.788;2.302;2023-04-07T14:28:47;3.55;;;1.58;;
59846;SDS011;45728;48.788;2.302;2023-04-07T14:31:14;3.65;;;1.70;;
59846;SDS011;45728;48.788;2.302;2023-04-07T14:33:41;4.20;;;2.00;;
59846;SDS011;45728;48.788;2.302;2023-04-07T14:36:07;4.25;;;1.70;;
59846;SDS011;45728;48.788;2.302;2023-04-07T14:38:36;4.30;;;2.00;;
59846;SDS011;45728;48.788;2.302;2023-04-07T14:41:02;3.65;;;1.85;;
59846;SDS011;45728;48.788;2.302;2023-04-07T14:43:28;3.72;;;1.58;;
59846;SDS011;45728;48.788;2.302;2023-04-07T14:45:55;5.75;;;2.08;;
59846;SDS011;45728;48.788;2.302;2023-04-07T14:48:22;4.80;;;1.73;;
59846;SDS011;45728;48.788;2.302;2023-04-07T14:50:48;4.88;;;1.90;;
59846;SDS011;45728;48.788;2.302;2023-04-07T14:53:15;4.85;;;1.77;;
59846;SDS011;45728;48.788;2.302;2023-04-07T14:55:41;4.93;;;1.60;;
59846;SDS011;45728;48.788;2.302;2023-04-07T14:58:07;4.82;;;1.48;;
59846;SDS011;45728;48.788;2.302;2023-04-07T15:00:33;4.10;;;1.40;;
59846;SDS011;45728;48.788;2.302;2023-04-07T15:03:00;4.63;;;1.48;;
59846;SDS011;45728;48.788;2.302;2023-04-07T15:05:26;3.67;;;1.48;;
59846;SDS011;45728;48.788;2.302;2023-04-07T15:07:54;3.42;;;1.20;;
59846;SDS011;45728;48.788;2.302;2023-04-07T15:10:20;4.78;;;1.65;;
59846;SDS011;45728;48.788;2.302;2023-04-07T15:12:46;4.63;;;1.58;;